Time;durP1;ratioP1;P1;durP2;ratioP2;P2;SDS_P1;SDS_P2;PMS_P1;PMS_P2;Temp;Humidity;BMP_temperature;BMP_pressure;BME280_temperature;BME280_humidity;BME280_pressure;Samples;Min_cycle;Max_cycle;Signal;HPM_P1;HPM_P2
2023/08/01 00:01:56;;;;;;;6.30;3.10;;;;;;;19.42;69.63;99597.41;111236;1203;97652;-62
2023/08/01 00:04:21;;;;;;;6.30;2.80;;;;;;;19.42;69.60;99597.25;111135;1206;139128;-62
2023/08/01 00:06:47;;;;;;;8.30;2.90;;;;;;;19.43;69.59;99597.19;111369;1208;97661;-62
2023/08/01 00:09:12;;;;;;;9.60;3.00;;;;;;;19.42;69.66;99591.30;111094;1207;138663;-62
2023/08/01 00:11:37;;;;;;;7.50;3.20;;;;;;;19.43;69.58;99579.02;111292;1204;98989;-62
2023/08/01 00:14:02;;;;;;;4.90;2.90;;;;;;;19.44;69.62;99576.36;111275;1205;98180;-62
2023/08/01 00:16:28;;;;;;;4.30;2.40;;;;;;;19.45;69.72;99571.64;111191;1209;139490;-62
2023/08/01 00:18:53;;;;;;;7.40;3.30;;;;;;;19.45;69.59;99569.20;111202;1205;97610;-62
2023/08/01 00:21:18;;;;;;;6.40;3.00;;;;;;;19.45;69.62;99564.70;111103;1209;139850;-62
2023/08/01 00:23:43;;;;;;;4.80;2.60;;;;;;;19.43;69.72;99563.80;111362;1208;97613;-62
2023/08/01 00:26:09;;;;;;;7.90;2.50;;;;;;;19.44;69.71;99557.36;111243;1203;99088;-62
2023/08/01 00:28:34;;;;;;;6.00;2.90;;;;;;;19.44;69.55;99549.98;111194;1208;139091;-62
2023/08/01 00:31:06;;;;;;;5.60;2.90;;;;;;;19.43;69.60;99546.23;111244;1209;97646;-63
2023/08/01 00:33:32;;;;;;;4.90;3.00;;;;;;;19.42;69.53;99544.52;111281;1206;140188;-62
2023/08/01 00:35:57;;;;;;;7.80;2.40;;;;;;;19.42;69.68;99541.13;111234;1206;97020;-62
2023/08/01 00:38:23;;;;;;;9.40;3.00;;;;;;;19.42;69.61;99536.40;111298;1209;97674;-62
2023/08/01 00:40:48;;;;;;;8.50;3.00;;;;;;;19.40;69.60;99530.75;111200;1206;139863;-62
2023/08/01 00:43:13;;;;;;;9.40;2.70;;;;;;;19.38;69.68;99524.60;111342;1209;97703;-62
2023/08/01 00:45:39;;;;;;;6.20;2.80;;;;;;;19.39;69.75;99520.77;111147;1203;138812;-62
2023/08/01 00:48:04;;;;;;;6.40;2.90;;;;;;;19.35;69.73;99511.83;111214;1206;97606;-62
2023/08/01 00:50:29;;;;;;;8.60;3.00;;;;;;;19.35;69.90;99505.73;111359;1209;97562;-62
2023/08/01 00:52:55;;;;;;;7.60;2.70;;;;;;;19.34;69.68;99502.54;111107;1209;139207;-62
2023/08/01 00:55:22;;;;;;;5.00;2.60;;;;;;;19.34;69.86;99489.38;111333;1203;99093;-63
2023/08/01 00:57:48;;;;;;;7.30;2.80;;;;;;;19.32;69.85;99486.79;111301;1208;140457;-62
2023/08/01 01:00:13;;;;;;;5.20;2.90;;;;;;;19.31;69.85;99484.97;111260;1206;97577;-62
2023/08/01 01:02:39;;;;;;;4.90;2.50;;;;;;;19.30;69.85;99482.14;111214;1209;138815;-62
2023/08/01 01:05:05;;;;;;;3.70;2.30;;;;;;;19.29;69.89;99477.14;111302;1208;99092;-62
2023/08/01 01:07:31;;;;;;;14.80;2.70;;;;;;;19.28;69.88;99477.23;111293;1208;97671;-62
2023/08/01 01:09:58;;;;;;;6.00;2.60;;;;;;;19.27;69.96;99474.83;111429;1206;139683;-64
2023/08/01 01:12:23;;;;;;;6.30;2.40;;;;;;;19.26;69.96;99473.84;111298;1206;98840;-62
2023/08/01 01:14:48;;;;;;;7.90;2.40;;;;;;;19.25;70.04;99468.15;111115;1208;138444;-62
2023/08/01 01:17:14;;;;;;;8.80;2.70;;;;;;;19.24;69.99;99470.61;111310;1203;97671;-62
2023/08/01 01:19:39;;;;;;;6.90;3.10;;;;;;;19.22;70.04;99464.27;111253;1208;97652;-62
2023/08/01 01:22:07;;;;;;;6.10;2.40;;;;;;;19.21;70.03;99459.48;111194;1216;139878;-62
2023/08/01 01:24:35;;;;;;;7.00;2.60;;;;;;;19.20;70.09;99452.73;111331;1205;97687;-62
2023/08/01 01:27:03;;;;;;;7.70;2.80;;;;;;;19.19;70.11;99443.04;111087;1208;138861;-62
2023/08/01 01:29:29;;;;;;;9.30;2.60;;;;;;;19.19;69.95;99444.84;111358;1208;97657;-63
2023/08/01 01:31:55;;;;;;;3.90;2.50;;;;;;;19.18;69.89;99443.81;111284;1209;96533;-62
2023/08/01 01:34:21;;;;;;;6.20;2.70;;;;;;;19.18;70.02;99438.62;111122;1203;139496;-62
2023/08/01 01:36:46;;;;;;;8.60;2.40;;;;;;;19.18;70.13;99440.08;111408;1203;98090;-63
2023/08/01 01:39:11;;;;;;;6.40;2.50;;;;;;;19.17;70.06;99433.05;111193;1209;138938;-62
2023/08/01 01:41:37;;;;;;;5.00;2.50;;;;;;;19.18;70.02;99427.79;111346;1209;97662;-62
2023/08/01 01:44:02;;;;;;;3.40;2.30;;;;;;;19.18;69.97;99421.98;111172;1208;97608;-62
2023/08/01 01:46:27;;;;;;;6.00;2.70;;;;;;;19.18;69.99;99412.52;111105;1208;140122;-62
2023/08/01 01:48:52;;;;;;;4.60;3.00;;;;;;;19.18;69.94;99404.94;111301;1218;97658;-62
2023/08/01 01:51:19;;;;;;;6.10;2.70;;;;;;;19.18;69.93;99397.64;111158;1203;138831;-62
2023/08/01 01:53:45;;;;;;;7.10;2.40;;;;;;;19.18;69.87;99390.75;111463;1209;97983;-64
2023/08/01 01:56:10;;;;;;;6.40;2.70;;;;;;;19.19;70.14;99386.52;111315;1206;98052;-63
2023/08/01 01:58:35;;;;;;;8.60;2.90;;;;;;;19.19;70.08;99378.16;111166;1203;139748;-62
2023/08/01 02:01:01;;;;;;;6.40;2.60;;;;;;;19.18;70.03;99379.71;111289;1208;97674;-64
2023/08/01 02:03:26;;;;;;;4.00;2.70;;;;;;;19.17;69.78;99377.46;111179;1203;138862;-62
2023/08/01 02:05:51;;;;;;;4.70;2.20;;;;;;;19.16;69.93;99374.02;111330;1208;97673;-65
2023/08/01 02:08:16;;;;;;;6.40;2.60;;;;;;;19.15;69.90;99371.52;111222;1209;97407;-62
2023/08/01 02:10:41;;;;;;;5.70;2.80;;;;;;;19.13;69.90;99373.10;111161;1208;139842;-62
2023/08/01 02:13:08;;;;;;;5.40;2.50;;;;;;;19.13;70.06;99370.82;111307;1203;97603;-63
2023/08/01 02:15:34;;;;;;;5.70;2.60;;;;;;;19.12;69.95;99367.45;111150;1209;139587;-62
2023/08/01 02:17:59;;;;;;;4.50;2.80;;;;;;;19.11;69.95;99366.66;111212;1209;97790;-64
2023/08/01 02:20:24;;;;;;;5.00;2.60;;;;;;;19.09;70.06;99366.98;111385;1206;97720;-62
2023/08/01 02:22:50;;;;;;;3.70;2.40;;;;;;;19.07;70.07;99362.48;111168;1208;139356;-62
2023/08/01 02:25:15;;;;;;;5.30;2.30;;;;;;;19.05;70.00;99361.42;111284;1204;97748;-62
2023/08/01 02:27:40;;;;;;;6.40;2.60;;;;;;;19.04;70.05;99356.52;111189;1203;140103;-62
2023/08/01 02:30:06;;;;;;;3.60;2.40;;;;;;;19.02;70.19;99355.55;111249;1203;97880;-62
2023/08/01 02:32:32;;;;;;;5.80;2.80;;;;;;;18.99;70.21;99356.75;111432;1209;97703;-63
2023/08/01 02:34:57;;;;;;;7.60;2.80;;;;;;;18.97;70.18;99353.04;111133;1208;138270;-62
2023/08/01 02:37:22;;;;;;;6.10;2.90;;;;;;;18.95;70.30;99353.27;111321;1203;97689;-62
2023/08/01 02:39:47;;;;;;;5.60;2.50;;;;;;;18.91;70.35;99350.19;111081;1205;138813;-63
2023/08/01 02:42:13;;;;;;;5.70;2.80;;;;;;;18.86;70.31;99345.92;111138;1208;97626;-62
2023/08/01 02:44:38;;;;;;;7.20;2.90;;;;;;;18.82;70.48;99347.63;111087;1206;139467;-63
2023/08/01 02:47:04;;;;;;;4.60;2.70;;;;;;;18.77;70.63;99349.52;111123;1208;97664;-66
2023/08/01 02:49:29;;;;;;;8.90;2.90;;;;;;;18.74;70.71;99348.61;111242;1205;97732;-63
2023/08/01 02:51:54;;;;;;;6.50;2.60;;;;;;;18.71;70.83;99348.34;111015;1203;139746;-63
2023/08/01 02:54:19;;;;;;;6.40;2.90;;;;;;;18.67;70.81;99350.73;111271;1208;97780;-63
2023/08/01 02:56:45;;;;;;;10.00;2.70;;;;;;;18.63;70.97;99348.20;111193;1208;140531;-63
2023/08/01 02:59:10;;;;;;;4.90;2.80;;;;;;;18.61;71.04;99347.52;111186;1203;99103;-63
2023/08/01 03:01:37;;;;;;;4.60;2.90;;;;;;;18.59;71.20;99346.05;111344;1205;98088;-63
2023/08/01 03:04:03;;;;;;;6.50;2.50;;;;;;;18.58;71.35;99344.39;111178;1203;138905;-63
2023/08/01 03:06:29;;;;;;;8.00;2.70;;;;;;;18.56;71.38;99338.23;111362;1208;100738;-63
2023/08/01 03:08:55;;;;;;;6.20;2.40;;;;;;;18.54;71.54;99334.23;111183;1203;139052;-63
2023/08/01 03:11:20;;;;;;;8.60;3.40;;;;;;;18.54;71.42;99328.27;111270;1203;99529;-63
2023/08/01 03:13:45;;;;;;;4.90;3.00;;;;;;;18.51;71.62;99323.08;111274;1204;96457;-63
2023/08/01 03:16:10;;;;;;;8.80;3.00;;;;;;;18.51;71.71;99323.68;111225;1206;139239;-63
2023/08/01 03:18:35;;;;;;;5.60;3.00;;;;;;;18.50;71.87;99319.95;111277;1209;97680;-63
2023/08/01 03:21:03;;;;;;;5.60;3.00;;;;;;;18.51;71.84;99315.74;111201;1208;139391;-63
2023/08/01 03:23:29;;;;;;;4.30;2.50;;;;;;;18.49;71.92;99314.95;111323;1205;98243;-63
2023/08/01 03:25:54;;;;;;;5.90;2.50;;;;;;;18.47;71.98;99309.15;111249;1203;98040;-63
2023/08/01 03:28:19;;;;;;;5.70;3.20;;;;;;;18.46;72.08;99307.88;111196;1203;138723;-64
2023/08/01 03:30:45;;;;;;;7.30;2.90;;;;;;;18.44;72.18;99310.77;111243;1208;97741;-63
2023/08/01 03:33:10;;;;;;;6.70;2.80;;;;;;;18.40;72.24;99311.50;111198;1208;139467;-63
2023/08/01 03:35:35;;;;;;;7.60;2.70;;;;;;;18.37;72.32;99310.40;111237;1209;97761;-63
2023/08/01 03:38:01;;;;;;;7.80;3.50;;;;;;;18.34;72.33;99309.27;111275;1208;97658;-63
2023/08/01 03:40:26;;;;;;;7.60;3.10;;;;;;;18.31;72.70;99307.67;111231;1210;138674;-63
2023/08/01 03:42:51;;;;;;;11.30;3.50;;;;;;;18.25;72.73;99306.09;111305;1208;97604;-63
2023/08/01 03:45:16;;;;;;;9.60;3.60;;;;;;;18.21;72.83;99304.61;111221;1208;139560;-63
2023/08/01 03:47:42;;;;;;;7.70;3.20;;;;;;;18.17;73.00;99305.86;111251;1206;98017;-64
2023/08/01 03:50:08;;;;;;;8.30;3.30;;;;;;;18.13;73.06;99306.20;111234;1203;97697;-64
2023/08/01 03:52:33;;;;;;;6.30;3.10;;;;;;;18.10;73.26;99310.71;111598;1206;139096;-63
2023/08/01 03:54:58;;;;;;;5.10;2.90;;;;;;;18.03;73.55;99307.05;111237;1208;96210;-63
2023/08/01 03:57:23;;;;;;;5.10;2.90;;;;;;;17.93;73.53;99307.08;111297;1209;138651;-63
2023/08/01 03:59:49;;;;;;;8.70;3.80;;;;;;;17.84;74.01;99310.65;111368;1203;97575;-63
2023/08/01 04:02:14;;;;;;;5.10;3.00;;;;;;;17.77;73.96;99312.17;111362;1209;98378;-63
2023/08/01 04:04:39;;;;;;;8.40;3.30;;;;;;;17.68;74.17;99313.04;111158;1206;139346;-63
2023/08/01 04:07:04;;;;;;;7.80;3.00;;;;;;;17.59;74.42;99308.31;111364;1203;98119;-64
2023/08/01 04:09:30;;;;;;;9.00;3.40;;;;;;;17.49;74.70;99308.48;111183;1203;138749;-64
2023/08/01 04:11:55;;;;;;;8.50;3.70;;;;;;;17.40;75.15;99311.53;111267;1207;97722;-64
2023/08/01 04:14:20;;;;;;;7.90;3.80;;;;;;;17.30;75.40;99308.34;111357;1209;97603;-64
2023/08/01 04:16:45;;;;;;;5.80;3.60;;;;;;;17.18;75.74;99306.64;111158;1203;139226;-63
2023/08/01 04:19:10;;;;;;;6.00;3.10;;;;;;;17.07;76.06;99306.77;111271;1212;97652;-64
2023/08/01 04:21:36;;;;;;;7.10;3.70;;;;;;;16.97;76.33;99306.24;111171;1209;139784;-63
2023/08/01 04:24:01;;;;;;;7.70;4.00;;;;;;;16.88;76.87;99300.55;111296;1208;98113;-63
2023/08/01 04:26:26;;;;;;;6.80;4.50;;;;;;;16.81;77.05;99296.55;111229;1203;97657;-64
2023/08/01 04:28:51;;;;;;;9.80;4.20;;;;;;;16.78;77.49;99292.29;111120;1203;140258;-64
2023/08/01 04:31:17;;;;;;;11.90;4.20;;;;;;;16.75;77.46;99290.98;111275;1219;97674;-65
2023/08/01 04:33:43;;;;;;;11.00;4.60;;;;;;;16.72;78.11;99289.03;111064;1209;138789;-64
2023/08/01 04:36:08;;;;;;;11.50;5.50;;;;;;;16.69;78.35;99283.92;111252;1208;97668;-64
2023/08/01 04:38:34;;;;;;;8.70;4.40;;;;;;;16.68;78.56;99278.05;111391;1208;97572;-64
2023/08/01 04:41:00;;;;;;;11.90;4.10;;;;;;;16.69;78.86;99277.26;111117;1208;138359;-65
2023/08/01 04:43:25;;;;;;;7.60;4.10;;;;;;;16.71;79.02;99277.09;111352;1208;97581;-65
2023/08/01 04:45:50;;;;;;;9.10;4.20;;;;;;;16.72;79.47;99276.50;111186;1209;138392;-65
2023/08/01 04:48:16;;;;;;;11.00;4.50;;;;;;;16.72;79.64;99270.09;111264;1207;97635;-65
2023/08/01 04:50:41;;;;;;;6.20;3.90;;;;;;;16.74;79.81;99268.67;111248;1207;139747;-64
2023/08/01 04:53:06;;;;;;;9.60;4.50;;;;;;;16.76;79.97;99267.02;111141;1206;97644;-65
2023/08/01 04:55:32;;;;;;;9.70;4.40;;;;;;;16.77;80.20;99266.04;111362;1205;96395;-65
2023/08/01 04:57:58;;;;;;;6.60;3.70;;;;;;;16.77;80.41;99262.04;111070;1216;139202;-65
2023/08/01 05:00:23;;;;;;;9.40;4.10;;;;;;;16.77;80.61;99257.09;111160;1208;100383;-65
2023/08/01 05:02:49;;;;;;;10.00;4.60;;;;;;;16.77;80.83;99247.63;111145;1209;138999;-65
2023/08/01 05:05:15;;;;;;;7.70;4.70;;;;;;;16.80;81.40;99238.14;111259;1206;97583;-65
2023/08/01 05:07:41;;;;;;;9.50;4.50;;;;;;;16.86;81.66;99236.36;111274;1203;98095;-65
2023/08/01 05:10:07;;;;;;;7.80;3.90;;;;;;;16.91;81.79;99235.54;111131;1203;138448;-65
2023/08/01 05:12:32;;;;;;;16.20;6.10;;;;;;;16.95;81.96;99241.13;111295;1208;97674;-65
2023/08/01 05:14:57;;;;;;;11.30;5.30;;;;;;;16.98;82.07;99238.20;111072;1206;140201;-65
2023/08/01 05:17:23;;;;;;;11.40;5.30;;;;;;;16.97;82.23;99232.44;111319;1209;97662;-65
2023/08/01 05:19:48;;;;;;;11.50;5.70;;;;;;;16.98;82.47;99226.20;111249;1209;97606;-65
2023/08/01 05:22:13;;;;;;;9.70;5.80;;;;;;;17.01;82.66;99224.35;111243;1209;139183;-66
2023/08/01 05:24:38;;;;;;;12.30;5.50;;;;;;;17.03;82.85;99231.13;111272;1208;98896;-65
2023/08/01 05:27:04;;;;;;;7.30;5.00;;;;;;;17.07;83.05;99230.63;111132;1208;138929;-65
2023/08/01 05:29:30;;;;;;;12.50;5.30;;;;;;;17.10;83.40;99230.14;111435;1203;97566;-65
2023/08/01 05:31:55;;;;;;;10.80;5.20;;;;;;;17.12;83.47;99226.23;111237;1208;97764;-65
2023/08/01 05:34:20;;;;;;;10.80;5.60;;;;;;;17.14;83.57;99222.96;111181;1203;139031;-65
2023/08/01 05:36:45;;;;;;;7.50;4.70;;;;;;;17.16;83.77;99221.08;111224;1209;97598;-65
2023/08/01 05:39:11;;;;;;;8.90;4.80;;;;;;;17.19;83.82;99223.36;111225;1208;140152;-65
2023/08/01 05:41:36;;;;;;;12.10;4.80;;;;;;;17.20;84.12;99217.89;111238;1208;97627;-66
2023/08/01 05:44:02;;;;;;;6.90;4.40;;;;;;;17.21;84.27;99215.61;111232;1206;97698;-65
2023/08/01 05:46:27;;;;;;;10.90;5.60;;;;;;;17.21;84.64;99213.64;111221;1206;138375;-65
2023/08/01 05:48:53;;;;;;;10.00;4.70;;;;;;;17.21;85.02;99211.67;111192;1209;97715;-66
2023/08/01 05:51:18;;;;;;;12.40;5.20;;;;;;;17.22;84.97;99210.30;111190;1203;139327;-65
2023/08/01 05:53:43;;;;;;;11.90;5.90;;;;;;;17.22;85.05;99209.93;111283;1206;97571;-66
2023/08/01 05:56:08;;;;;;;13.10;4.70;;;;;;;17.24;85.26;99214.27;111273;1209;97680;-65
2023/08/01 05:58:34;;;;;;;14.10;5.30;;;;;;;17.27;85.44;99211.04;111233;1206;139085;-66
2023/08/01 06:00:59;;;;;;;11.80;5.70;;;;;;;17.31;85.58;99210.19;111162;1209;97677;-66
2023/08/01 06:03:24;;;;;;;14.50;5.20;;;;;;;17.30;85.74;99211.02;111238;1209;139225;-65
2023/08/01 06:05:50;;;;;;;10.20;5.10;;;;;;;17.30;85.86;99209.73;111164;1208;97749;-66
2023/08/01 06:08:18;;;;;;;8.60;4.60;;;;;;;17.32;86.17;99206.50;111289;1204;97764;-66
2023/08/01 06:10:44;;;;;;;10.00;4.50;;;;;;;17.32;86.33;99208.30;111039;1208;139771;-66
2023/08/01 06:13:09;;;;;;;11.10;5.00;;;;;;;17.32;86.35;99210.77;111158;1208;97648;-65
2023/08/01 06:15:34;;;;;;;6.30;3.90;;;;;;;17.33;86.60;99202.77;111061;1207;138975;-65
2023/08/01 06:17:59;;;;;;;10.10;4.70;;;;;;;17.36;86.74;99199.73;111097;1209;97690;-65
2023/08/01 06:20:25;;;;;;;11.80;4.40;;;;;;;17.40;86.97;99199.91;111174;1203;97610;-65
2023/08/01 06:22:50;;;;;;;10.30;4.50;;;;;;;17.44;87.04;99192.15;111003;1215;138528;-66
2023/08/01 06:25:16;;;;;;;8.40;4.50;;;;;;;17.48;87.22;99185.27;110976;1209;97744;-66
2023/08/01 06:27:41;;;;;;;15.00;4.90;;;;;;;17.51;87.25;99184.00;111085;1209;138330;-66
2023/08/01 06:30:07;;;;;;;15.20;4.90;;;;;;;17.52;87.20;99182.09;111101;1205;97693;-65
2023/08/01 06:32:32;;;;;;;8.30;4.30;;;;;;;17.50;87.36;99175.98;111258;1209;97692;-65
2023/08/01 06:34:57;;;;;;;10.90;4.60;;;;;;;17.48;87.43;99176.16;111023;1203;140389;-65
2023/08/01 06:37:23;;;;;;;10.60;5.60;;;;;;;17.49;87.59;99178.48;111148;1208;97696;-66
2023/08/01 06:39:48;;;;;;;14.10;5.30;;;;;;;17.48;87.43;99176.77;111019;1208;139043;-66
2023/08/01 06:42:13;;;;;;;16.30;5.20;;;;;;;17.45;87.53;99173.75;111182;1207;97446;-66
2023/08/01 06:44:39;;;;;;;43.90;7.80;;;;;;;17.45;87.64;99173.79;111070;1209;138918;-66
2023/08/01 06:47:05;;;;;;;13.20;4.20;;;;;;;17.44;87.71;99170.79;111107;1209;97636;-66
2023/08/01 06:49:30;;;;;;;17.60;5.40;;;;;;;17.44;87.79;99168.28;111091;1208;97517;-66
2023/08/01 06:51:55;;;;;;;34.30;6.30;;;;;;;17.47;87.98;99160.20;111046;1208;140589;-66
2023/08/01 06:54:21;;;;;;;15.20;4.80;;;;;;;17.51;87.97;99157.80;111132;1203;97684;-66
2023/08/01 06:56:49;;;;;;;9.70;4.50;;;;;;;17.53;87.96;99157.11;111119;1209;138893;-66
2023/08/01 06:59:14;;;;;;;9.20;5.10;;;;;;;17.55;88.21;99153.65;111910;1209;97584;-66
2023/08/01 07:01:43;;;;;;;11.50;5.30;;;;;;;17.59;88.23;99152.55;112302;1203;99782;-68
2023/08/01 07:04:09;;;;;;;8.60;4.20;;;;;;;17.65;88.29;99152.19;111778;1203;138617;-66
2023/08/01 07:06:34;;;;;;;8.90;4.60;;;;;;;17.73;88.43;99151.60;111939;1206;98106;-66
2023/08/01 07:08:59;;;;;;;8.20;4.50;;;;;;;17.84;88.52;99148.93;111850;1209;139160;-66
2023/08/01 07:11:25;;;;;;;8.40;4.20;;;;;;;17.95;88.63;99150.71;111877;1208;97561;-66
2023/08/01 07:13:50;;;;;;;12.00;4.90;;;;;;;18.09;88.79;99146.65;112004;1206;96485;-66
2023/08/01 07:16:15;;;;;;;9.50;5.50;;;;;;;18.19;88.64;99143.13;111759;1208;138493;-66
2023/08/01 07:18:40;;;;;;;18.10;5.10;;;;;;;18.24;88.70;99141.71;111902;1208;97671;-66
2023/08/01 07:21:05;;;;;;;9.60;4.90;;;;;;;18.28;88.80;99139.63;111705;1203;138916;-66
2023/08/01 07:23:33;;;;;;;8.90;4.90;;;;;;;18.33;88.83;99140.05;111967;1207;97611;-66
2023/08/01 07:25:58;;;;;;;8.80;5.10;;;;;;;18.38;88.91;99133.77;111946;1203;97899;-67
2023/08/01 07:28:24;;;;;;;8.70;5.00;;;;;;;18.44;88.79;99128.24;111856;1208;139120;-66
2023/08/01 07:30:58;;;;;;;7.70;3.90;;;;;;;18.49;88.81;99127.61;111910;1203;96166;-67
2023/08/01 07:33:23;;;;;;;9.00;4.10;;;;;;;18.52;88.75;99128.60;111842;1206;138484;-67
2023/08/01 07:35:48;;;;;;;12.50;7.40;;;;;;;18.55;88.60;99120.29;111997;1208;97629;-67
2023/08/01 07:38:14;;;;;;;11.70;5.50;;;;;;;18.58;88.65;99119.67;111991;1203;97705;-67
2023/08/01 07:40:39;;;;;;;29.70;9.00;;;;;;;18.63;88.62;99116.48;111847;1208;140547;-66
2023/08/01 07:43:04;;;;;;;11.70;5.60;;;;;;;18.70;88.82;99115.89;111134;1208;97591;-66
2023/08/01 07:45:33;;;;;;;9.30;4.80;;;;;;;18.75;88.63;99112.71;110980;1206;139287;-65
2023/08/01 07:47:58;;;;;;;8.90;4.30;;;;;;;18.77;88.53;99109.55;111020;1207;98997;-65
2023/08/01 07:50:23;;;;;;;8.50;5.00;;;;;;;18.81;88.46;99112.63;111007;1203;97715;-65
2023/08/01 07:52:49;;;;;;;14.20;5.20;;;;;;;18.81;88.34;99108.60;111093;1208;138281;-65
2023/08/01 07:55:14;;;;;;;7.90;4.20;;;;;;;18.83;88.39;99109.55;111074;1203;97556;-65
2023/08/01 07:57:39;;;;;;;8.90;4.50;;;;;;;18.86;88.37;99112.16;111109;1209;138716;-65
2023/08/01 08:00:05;;;;;;;7.00;4.20;;;;;;;18.89;88.10;99106.15;111159;1209;97728;-66
2023/08/01 08:02:31;;;;;;;6.50;4.60;;;;;;;18.89;87.97;99107.50;111221;1203;98071;-66
2023/08/01 08:04:56;;;;;;;6.50;3.80;;;;;;;18.86;88.05;99105.41;111032;1206;138187;-66
2023/08/01 08:07:21;;;;;;;7.40;4.00;;;;;;;18.85;87.86;99103.50;111124;1206;97639;-65
2023/08/01 08:09:46;;;;;;;12.30;3.70;;;;;;;18.87;87.64;99095.41;111174;1209;138283;-64
2023/08/01 08:12:12;;;;;;;10.90;5.50;;;;;;;18.89;87.85;99091.21;111165;1204;98414;-64
2023/08/01 08:14:38;;;;;;;14.00;5.30;;;;;;;18.92;87.76;99090.16;111143;1208;139408;-66
2023/08/01 08:17:03;;;;;;;10.50;4.70;;;;;;;18.95;87.75;99087.67;111290;1203;98524;-66
2023/08/01 08:19:29;;;;;;;8.00;4.80;;;;;;;18.98;87.56;99085.96;111152;1208;97674;-65
2023/08/01 08:21:54;;;;;;;6.30;3.80;;;;;;;18.98;87.37;99081.15;111145;1217;138999;-65
2023/08/01 08:24:19;;;;;;;6.80;3.70;;;;;;;18.99;87.42;99077.31;111066;1208;99115;-64
2023/08/01 08:26:45;;;;;;;11.20;3.70;;;;;;;19.04;87.51;99077.28;110929;1208;139163;-64
2023/08/01 08:29:11;;;;;;;10.20;4.50;;;;;;;19.09;87.39;99074.95;111046;1208;98007;-65
2023/08/01 08:31:36;;;;;;;11.50;4.20;;;;;;;19.11;87.12;99073.44;111005;1209;97641;-65
2023/08/01 08:34:01;;;;;;;5.50;3.90;;;;;;;19.11;87.11;99066.27;110933;1209;139104;-67
2023/08/01 08:36:26;;;;;;;9.90;3.60;;;;;;;19.12;87.18;99063.20;111123;1209;102710;-65
2023/08/01 08:38:52;;;;;;;8.60;4.20;;;;;;;19.12;87.14;99060.52;110922;1208;139188;-66
2023/08/01 08:41:21;;;;;;;6.00;3.40;;;;;;;19.13;86.94;99058.48;111091;1209;97906;-66
2023/08/01 08:43:48;;;;;;;7.30;3.00;;;;;;;19.14;86.92;99056.55;111168;1208;97684;-67
2023/08/01 08:46:16;;;;;;;8.60;4.80;;;;;;;19.15;86.86;99055.90;110916;1208;138616;-65
2023/08/01 08:48:42;;;;;;;7.00;3.60;;;;;;;19.18;86.91;99050.66;110834;1208;97709;-64
2023/08/01 08:51:07;;;;;;;8.80;3.80;;;;;;;19.20;86.77;99049.73;110932;1203;138589;-63
2023/08/01 08:53:35;;;;;;;10.70;4.10;;;;;;;19.19;86.72;99046.63;111059;1208;97725;-64
2023/08/01 08:56:00;;;;;;;14.60;4.40;;;;;;;19.19;86.72;99046.94;111865;1207;103506;-64
2023/08/01 08:58:26;;;;;;;9.50;3.00;;;;;;;19.17;86.40;99043.70;111085;1209;139337;-64
2023/08/01 09:00:51;;;;;;;9.00;3.50;;;;;;;19.17;86.55;99045.26;111500;1208;98110;-64
2023/08/01 09:03:17;;;;;;;4.90;2.80;;;;;;;19.16;86.45;99046.88;111097;1203;138593;-64
2023/08/01 09:05:50;;;;;;;6.60;3.00;;;;;;;19.15;86.28;99045.59;111145;1208;97709;-63
2023/08/01 09:08:19;;;;;;;7.10;3.70;;;;;;;19.07;86.30;99038.23;111418;1208;96499;-63
2023/08/01 09:10:46;;;;;;;10.70;3.90;;;;;;;18.99;86.24;99035.67;111026;1209;139056;-64
2023/08/01 09:13:11;;;;;;;7.60;3.60;;;;;;;18.93;86.25;99029.02;111369;1207;97674;-63
2023/08/01 09:15:37;;;;;;;6.80;3.90;;;;;;;18.94;86.57;99032.37;111007;1209;139119;-64
2023/08/01 09:18:06;;;;;;;8.30;3.60;;;;;;;18.99;86.53;99026.36;111055;1209;97989;-64
2023/08/01 09:20:40;;;;;;;9.60;3.30;;;;;;;18.99;86.33;99021.58;111108;1208;99669;-63
2023/08/01 09:23:08;;;;;;;6.70;3.40;;;;;;;18.97;86.39;99019.90;110957;1203;97795;-63
2023/08/01 09:25:35;;;;;;;7.80;3.00;;;;;;;18.97;86.33;99013.97;110963;1206;97630;-64
2023/08/01 09:28:00;;;;;;;9.50;2.90;;;;;;;18.97;86.31;99011.02;110899;1209;139568;-63
2023/08/01 09:30:29;;;;;;;13.90;5.70;;;;;;;18.97;86.32;99005.58;111021;1209;97658;-64
2023/08/01 09:32:56;;;;;;;7.60;4.60;;;;;;;18.99;86.43;99005.05;110852;1203;140357;-64
2023/08/01 09:35:22;;;;;;;11.50;3.90;;;;;;;19.00;86.30;99005.44;110982;1203;97922;-63
2023/08/01 09:37:48;;;;;;;9.70;4.90;;;;;;;18.96;86.35;99010.46;110968;1207;100612;-63
2023/08/01 09:40:14;;;;;;;7.10;3.60;;;;;;;18.84;86.09;99014.92;111003;1203;139583;-63
2023/08/01 09:42:45;;;;;;;7.40;3.80;;;;;;;18.68;86.56;99016.60;110951;1208;99212;-64
2023/08/01 09:45:17;;;;;;;6.50;3.30;;;;;;;18.49;86.61;99014.14;110939;1206;140334;-67
2023/08/01 09:47:44;;;;;;;7.10;3.20;;;;;;;18.36;87.01;99009.41;110915;1209;103086;-65
2023/08/01 09:50:11;;;;;;;9.90;2.80;;;;;;;18.25;87.30;99014.52;111012;1215;97687;-64
2023/08/01 09:52:37;;;;;;;3.50;2.60;;;;;;;18.13;87.28;99010.50;110891;1209;140101;-66
2023/08/01 09:55:02;;;;;;;5.40;2.70;;;;;;;18.00;87.62;99006.52;111104;1203;99279;-63
2023/08/01 09:57:30;;;;;;;7.50;2.80;;;;;;;17.90;87.93;99001.59;110913;1208;140333;-64
2023/08/01 09:59:57;;;;;;;3.90;2.30;;;;;;;17.80;88.15;98999.86;111352;1208;97258;-63
2023/08/01 10:02:26;;;;;;;4.60;2.90;;;;;;;17.70;88.39;98999.58;110998;1209;97590;-64
2023/08/01 10:04:57;;;;;;;4.50;1.90;;;;;;;17.59;88.52;98998.36;111012;1209;138474;-63
2023/08/01 10:07:28;;;;;;;3.90;2.00;;;;;;;17.40;88.97;98991.59;111417;1207;96857;-65
2023/08/01 10:09:55;;;;;;;3.20;2.30;;;;;;;17.27;89.74;98983.94;110837;1208;139722;-64
2023/08/01 10:12:22;;;;;;;5.80;3.40;;;;;;;17.19;90.18;98985.59;111293;1208;97681;-65
2023/08/01 10:14:48;;;;;;;4.50;2.90;;;;;;;17.16;90.76;98989.91;110840;1203;139064;-64
2023/08/01 10:17:14;;;;;;;9.60;4.00;;;;;;;17.13;91.17;98982.91;111085;1206;97581;-64
2023/08/01 10:19:41;;;;;;;9.70;5.10;;;;;;;17.15;91.68;98981.70;110898;1205;97620;-68
2023/08/01 10:22:08;;;;;;;6.30;3.00;;;;;;;17.18;91.85;98979.24;110803;1208;139136;-64
2023/08/01 10:24:35;;;;;;;4.70;2.70;;;;;;;17.23;92.15;98970.84;111038;1203;99212;-65
2023/08/01 10:27:20;;;;;;;5.80;2.70;;;;;;;17.27;92.40;98966.77;110853;1208;138711;-64
2023/08/01 10:29:56;;;;;;;10.80;4.10;;;;;;;17.31;92.72;98962.83;111284;1207;97673;-65
2023/08/01 10:32:29;;;;;;;6.60;4.30;;;;;;;17.35;93.46;98951.98;110946;1219;102802;-64
2023/08/01 10:34:54;;;;;;;5.90;3.30;;;;;;;17.36;93.19;98950.20;110955;1206;139804;-64
2023/08/01 10:37:19;;;;;;;6.90;3.50;;;;;;;17.37;93.37;98949.16;110921;1209;99081;-64
2023/08/01 10:39:55;;;;;;;5.30;3.20;;;;;;;17.40;93.67;98943.91;110956;1208;138281;-65
2023/08/01 10:42:20;;;;;;;7.70;3.70;;;;;;;17.43;94.08;98941.44;111003;1206;103008;-64
2023/08/01 10:44:46;;;;;;;6.20;3.60;;;;;;;17.44;94.32;98937.09;110879;1203;139172;-65
2023/08/01 10:47:11;;;;;;;7.10;3.70;;;;;;;17.50;94.60;98933.84;111017;1209;97704;-65
2023/08/01 10:49:40;;;;;;;7.10;3.80;;;;;;;17.56;94.80;98930.39;111038;1208;97979;-65
2023/08/01 10:52:23;;;;;;;7.60;3.90;;;;;;;17.59;95.03;98927.37;111112;1209;139062;-65
2023/08/01 10:55:02;;;;;;;5.70;4.10;;;;;;;17.66;95.24;98927.40;111139;1203;98322;-65
2023/08/01 10:57:29;;;;;;;10.90;5.50;;;;;;;17.74;95.27;98926.95;110906;1208;140475;-65
2023/08/01 10:59:56;;;;;;;9.80;5.70;;;;;;;17.85;95.52;98928.76;111179;1203;98943;-63
2023/08/01 11:02:27;;;;;;;10.30;5.90;;;;;;;18.01;95.81;98921.63;111040;1208;97659;-64
2023/08/01 11:05:00;;;;;;;9.00;4.90;;;;;;;18.17;95.85;98918.48;110834;1203;138568;-64
2023/08/01 11:07:26;;;;;;;8.20;5.30;;;;;;;18.32;96.28;98910.16;111009;1207;98448;-65
2023/08/01 11:10:31;;;;;;;8.70;5.70;;;;;;;18.46;96.49;98901.42;111112;1209;138569;-65
2023/08/01 11:12:57;;;;;;;11.60;5.40;;;;;;;18.50;96.13;98901.04;110678;1203;97588;-65
2023/08/01 11:15:23;;;;;;;13.90;5.00;;;;;;;18.47;96.15;98900.04;111665;1208;138851;-65